createdAt,value
2023-05-09T00:00:45.454Z,102051.66
2023-05-09T00:03:12.712Z,102047.31
2023-05-09T00:05:39.101Z,102050.78
2023-05-09T00:08:05.554Z,102054.25
2023-05-09T00:10:31.887Z,102053.41
2023-05-09T00:12:58.871Z,102050.81
2023-05-09T00:15:26.018Z,102036.84
2023-05-09T00:17:52.995Z,102041.19
2023-05-09T00:20:20.114Z,102035.09
2023-05-09T00:22:46.505Z,102041.22
2023-05-09T00:25:12.972Z,102043.00
2023-05-09T00:27:39.553Z,102049.09
2023-05-09T00:30:06.659Z,102034.28
2023-05-09T00:32:33.483Z,102043.88
2023-05-09T00:34:59.829Z,102039.47
2023-05-09T00:37:26.335Z,102036.00
2023-05-09T00:39:52.679Z,102034.28
2023-05-09T00:42:19.078Z,102032.50
2023-05-09T00:44:45.444Z,102035.13
2023-05-09T00:47:11.750Z,102037.75
2023-05-09T00:49:38.056Z,102029.03
2023-05-09T00:52:04.960Z,102034.28
2023-05-09T00:54:31.298Z,102035.13
2023-05-09T00:56:57.653Z,102031.66
2023-05-09T00:59:24.036Z,102028.19
2023-05-09T01:01:50.730Z,102029.94
2023-05-09T01:04:17.212Z,102023.84
2023-05-09T01:06:56.446Z,102025.59
2023-05-09T01:09:28.794Z,102020.38
2023-05-09T01:12:10.613Z,102021.25
2023-05-09T01:14:55.561Z,102030.84
2023-05-09T01:17:33.350Z,102020.38
2023-05-09T01:20:11.181Z,102025.59
2023-05-09T01:22:38.224Z,102023.88
2023-05-09T01:25:23.176Z,102026.47
2023-05-09T01:27:51.467Z,102022.09
2023-05-09T01:30:17.792Z,102025.59
2023-05-09T01:32:44.643Z,102026.44
2023-05-09T01:35:12.039Z,102018.63
2023-05-09T01:37:39.685Z,102021.25
2023-05-09T01:40:16.702Z,102023.81
2023-05-09T01:43:06.327Z,102022.97
2023-05-09T01:45:33.015Z,102019.47
2023-05-09T01:47:59.382Z,102020.31
2023-05-09T01:50:25.722Z,102022.97
2023-05-09T01:52:52.663Z,102020.34
2023-05-09T01:55:19.878Z,102026.44
2023-05-09T01:57:46.177Z,102018.63
2023-05-09T02:00:13.356Z,102025.59
2023-05-09T02:02:40.097Z,102021.22
2023-05-09T02:05:07.042Z,102024.69
2023-05-09T02:07:33.431Z,102026.47
2023-05-09T02:09:59.748Z,102027.31
2023-05-09T02:12:26.211Z,102025.56
2023-05-09T02:14:52.627Z,102025.56
2023-05-09T02:17:19.334Z,102025.56
2023-05-09T02:19:45.941Z,102027.28
2023-05-09T02:22:12.455Z,102028.16
2023-05-09T02:24:38.872Z,102019.44
2023-05-09T02:27:05.306Z,102024.66
2023-05-09T02:29:39.831Z,102022.94
2023-05-09T02:32:10.586Z,102027.31
2023-05-09T02:34:37.609Z,102031.63
2023-05-09T02:37:04.056Z,102030.78
2023-05-09T02:39:30.890Z,102029.91
2023-05-09T02:41:57.271Z,102032.53
2023-05-09T02:44:23.620Z,102029.91
2023-05-09T02:46:49.933Z,102029.91
2023-05-09T02:49:31.526Z,102032.53
2023-05-09T02:51:58.971Z,102029.03
2023-05-09T02:54:34.359Z,102031.66
2023-05-09T02:57:00.843Z,102030.78
2023-05-09T02:59:27.505Z,102037.75
2023-05-09T03:01:53.897Z,102039.50
2023-05-09T03:04:20.283Z,102031.66
2023-05-09T03:06:46.678Z,102036.88
2023-05-09T03:09:12.985Z,102037.75
2023-05-09T03:11:39.401Z,102037.72
2023-05-09T03:14:06.272Z,102040.34
2023-05-09T03:16:32.621Z,102030.75
2023-05-09T03:18:59.018Z,102037.75
2023-05-09T03:21:25.767Z,102037.75
2023-05-09T03:23:52.151Z,102045.59
2023-05-09T03:26:19.823Z,102039.50
2023-05-09T03:28:46.332Z,102041.22
2023-05-09T03:31:12.783Z,102035.13
2023-05-09T03:33:39.256Z,102039.50
2023-05-09T03:36:05.770Z,102043.84
2023-05-09T03:38:32.227Z,102045.56
2023-05-09T03:40:58.745Z,102048.19
2023-05-09T03:43:25.294Z,102051.66
2023-05-09T03:45:51.632Z,102049.94
2023-05-09T03:48:18.001Z,102046.44
2023-05-09T03:50:44.340Z,102055.13
2023-05-09T03:53:10.723Z,102049.88
2023-05-09T03:55:37.090Z,102054.25
2023-05-09T03:58:03.581Z,102057.75
2023-05-09T04:00:29.973Z,102056.03
2023-05-09T04:02:56.365Z,102060.38
2023-05-09T04:05:22.807Z,102066.44
2023-05-09T04:07:49.153Z,102061.16
2023-05-09T04:10:15.534Z,102064.66
2023-05-09T04:12:41.901Z,102071.66
2023-05-09T04:15:08.749Z,102070.75
2023-05-09T04:17:35.168Z,102070.75
2023-05-09T04:20:02.069Z,102075.97
2023-05-09T04:22:28.374Z,102075.94
2023-05-09T04:24:54.749Z,102075.06
2023-05-09T04:27:21.825Z,102066.34
2023-05-09T04:29:49.354Z,102075.06
2023-05-09T04:32:15.875Z,102077.59
2023-05-09T04:34:42.282Z,102075.81
2023-05-09T04:37:09.054Z,102062.66
2023-05-09T04:39:35.440Z,102069.66
2023-05-09T04:42:02.665Z,102069.53
2023-05-09T04:44:29.101Z,102059.91
2023-05-09T04:46:55.674Z,102064.22
2023-05-09T04:49:22.027Z,102065.91
2023-05-09T04:51:48.355Z,102066.69
2023-05-09T04:54:14.799Z,102063.13
2023-05-09T04:56:41.192Z,102071.78
2023-05-09T04:59:07.619Z,102075.19
2023-05-09T05:01:34.072Z,102079.47
2023-05-09T05:04:00.573Z,102071.38
2023-05-09T05:06:26.920Z,102074.69
2023-05-09T05:08:53.320Z,102075.47
2023-05-09T05:11:20.486Z,102069.13
2023-05-09T05:13:47.180Z,102069.75
2023-05-09T05:16:13.689Z,102073.00
2023-05-09T05:18:40.141Z,102072.03
2023-05-09T05:21:06.564Z,102067.47
2023-05-09T05:23:32.962Z,102069.03
2023-05-09T05:25:59.331Z,102073.25
2023-05-09T05:28:25.731Z,102066.97
2023-05-09T05:30:52.114Z,102067.63
2023-05-09T05:33:18.469Z,102064.81
2023-05-09T05:35:44.882Z,102058.34
2023-05-09T05:38:11.241Z,102064.06
2023-05-09T05:40:37.660Z,102061.94
2023-05-09T05:43:03.987Z,102058.03
2023-05-09T05:45:31.003Z,102057.66
2023-05-09T05:47:57.877Z,102059.03
2023-05-09T05:50:24.347Z,102054.41
2023-05-09T05:52:50.756Z,102061.19
2023-05-09T05:55:17.204Z,102060.00
2023-05-09T05:57:43.753Z,102061.66
2023-05-09T06:00:14.593Z,102057.78
2023-05-09T06:02:44.573Z,102051.31
2023-05-09T06:05:11.276Z,102057.56
2023-05-09T06:07:37.689Z,102053.75
2023-05-09T06:10:04.633Z,102051.22
2023-05-09T06:12:31.029Z,102052.38
2023-05-09T06:14:57.457Z,102050.81
2023-05-09T06:17:23.838Z,102046.78
2023-05-09T06:19:50.198Z,102048.78
2023-05-09T06:22:16.563Z,102046.50
2023-05-09T06:24:42.898Z,102053.34
2023-05-09T06:27:09.237Z,102051.91
2023-05-09T06:29:35.701Z,102049.75
2023-05-09T06:32:02.032Z,102043.97
2023-05-09T06:34:28.435Z,102041.34
2023-05-09T06:36:54.886Z,102043.19
2023-05-09T06:39:21.233Z,102042.69
2023-05-09T06:41:47.622Z,102035.53
2023-05-09T06:44:14.021Z,102037.31
2023-05-09T06:46:40.478Z,102039.31
2023-05-09T06:49:06.945Z,102037.53
2023-05-09T06:51:33.453Z,102031.41
2023-05-09T06:53:59.804Z,102026.78
2023-05-09T06:56:26.930Z,102026.69
2023-05-09T06:58:53.531Z,102027.47
2023-05-09T07:01:19.922Z,102026.53
2023-05-09T07:03:47.516Z,102028.47
2023-05-09T07:06:13.914Z,102036.81
2023-05-09T07:08:40.257Z,102030.72
2023-05-09T07:11:06.666Z,102027.59
2023-05-09T07:13:33.113Z,102025.19
2023-05-09T07:15:59.534Z,102025.09
2023-05-09T07:18:25.842Z,102018.38
2023-05-09T07:20:52.268Z,102021.22
2023-05-09T07:23:18.705Z,102016.97
2023-05-09T07:25:45.456Z,102016.88
2023-05-09T07:28:13.141Z,102007.47
2023-05-09T07:30:39.475Z,102016.03
2023-05-09T07:33:06.737Z,102024.13
2023-05-09T07:35:33.273Z,102009.13
2023-05-09T07:37:59.613Z,102006.13
2023-05-09T07:40:26.031Z,102011.06
2023-05-09T07:42:55.137Z,102009.81
2023-05-09T07:45:23.724Z,102005.28
2023-05-09T07:47:50.337Z,101994.63
2023-05-09T07:50:17.462Z,101991.47
2023-05-09T07:52:43.873Z,102001.56
2023-05-09T07:55:10.427Z,101996.22
2023-05-09T07:57:36.778Z,101988.53
2023-05-09T08:00:03.488Z,101998.00
2023-05-09T08:02:29.943Z,101991.41
2023-05-09T08:04:56.320Z,101990.53
2023-05-09T08:07:22.693Z,101988.91
2023-05-09T08:09:49.031Z,102000.13
2023-05-09T08:12:15.450Z,101983.59
2023-05-09T08:14:41.838Z,101980.19
2023-05-09T08:17:08.291Z,101977.31
2023-05-09T08:19:34.659Z,101972.72
2023-05-09T08:22:01.273Z,101979.88
2023-05-09T08:24:27.629Z,101982.31
2023-05-09T08:26:54.062Z,101964.13
2023-05-09T08:29:20.475Z,101971.00
2023-05-09T08:31:46.845Z,101957.94
2023-05-09T08:34:13.284Z,101966.28
2023-05-09T08:36:40.954Z,101960.25
2023-05-09T08:39:07.356Z,101960.56
2023-05-09T08:41:36.036Z,101957.31
2023-05-09T08:44:02.443Z,101942.78
2023-05-09T08:46:34.136Z,101947.38
2023-05-09T08:49:00.858Z,101951.69
2023-05-09T08:51:27.177Z,101959.44
2023-05-09T08:53:53.523Z,101941.66
2023-05-09T08:56:19.899Z,101932.72
2023-05-09T08:58:46.280Z,101930.28
2023-05-09T09:01:13.335Z,101933.22
2023-05-09T09:03:39.733Z,101937.69
2023-05-09T09:06:07.473Z,101934.72
2023-05-09T09:08:33.804Z,101937.88
2023-05-09T09:11:00.251Z,101934.63
2023-05-09T09:13:26.605Z,101931.38
2023-05-09T09:15:53.071Z,101926.13
2023-05-09T09:18:21.394Z,101928.00
2023-05-09T09:20:48.544Z,101930.13
2023-05-09T09:23:17.078Z,101934.28
2023-05-09T09:25:45.387Z,101923.88
2023-05-09T09:28:11.755Z,101921.09
2023-05-09T09:30:43.404Z,101935.44
2023-05-09T09:33:09.797Z,101923.69
2023-05-09T09:35:40.091Z,101929.53
2023-05-09T09:38:06.487Z,101939.56
2023-05-09T09:40:32.865Z,101918.38
2023-05-09T09:42:59.211Z,101904.44
2023-05-09T09:45:25.519Z,101909.94
2023-05-09T09:47:52.209Z,101902.84
2023-05-09T09:50:19.227Z,101898.75
2023-05-09T09:52:49.537Z,101905.59
2023-05-09T09:55:16.136Z,101900.97
2023-05-09T09:57:45.622Z,101893.66
2023-05-09T10:00:13.210Z,101906.44
2023-05-09T10:02:53.041Z,101890.94
2023-05-09T10:05:25.414Z,101888.38
2023-05-09T10:07:56.235Z,101885.03
2023-05-09T10:10:22.693Z,101884.72
2023-05-09T10:12:49.016Z,101882.13
2023-05-09T10:15:16.497Z,101902.56
2023-05-09T10:17:43.232Z,101877.13
2023-05-09T10:20:09.972Z,101869.47
2023-05-09T10:22:36.524Z,101873.78
2023-05-09T10:25:02.868Z,101864.50
2023-05-09T10:27:31.173Z,101865.69
2023-05-09T10:30:01.516Z,101856.25
2023-05-09T10:32:29.350Z,101864.50
2023-05-09T10:34:58.320Z,101849.91
2023-05-09T10:37:24.699Z,101840.22
2023-05-09T10:39:53.528Z,101847.25
2023-05-09T10:42:20.167Z,101835.53
2023-05-09T10:44:46.741Z,101846.41
2023-05-09T10:47:13.294Z,101838.19
2023-05-09T10:49:39.615Z,101830.50
2023-05-09T10:52:06.204Z,101854.16
2023-05-09T10:54:33.608Z,101835.69
2023-05-09T10:57:00.764Z,101839.22
2023-05-09T10:59:33.173Z,101829.28
2023-05-09T11:02:02.784Z,101813.22
2023-05-09T11:04:29.458Z,101828.00
2023-05-09T11:06:57.713Z,101811.19
2023-05-09T11:09:28.389Z,101827.94
2023-05-09T11:11:56.489Z,101804.72
2023-05-09T11:14:49.429Z,101808.97
2023-05-09T11:17:22.238Z,101794.19
2023-05-09T11:19:50.308Z,101800.63
2023-05-09T11:22:17.830Z,101794.72
2023-05-09T11:24:59.537Z,101792.00
2023-05-09T11:27:26.785Z,101786.81
2023-05-09T11:29:53.856Z,101769.41
2023-05-09T11:32:20.922Z,101774.06
2023-05-09T11:34:47.360Z,101774.69
2023-05-09T11:37:14.427Z,101791.09
2023-05-09T11:40:00.231Z,101777.00
2023-05-09T11:42:29.640Z,101775.41
2023-05-09T11:44:56.442Z,101765.16
2023-05-09T11:47:22.883Z,101769.56
2023-05-09T11:49:49.775Z,101750.06
2023-05-09T11:52:16.768Z,101756.63
2023-05-09T11:54:43.320Z,101763.34
2023-05-09T11:57:09.761Z,101749.09
2023-05-09T11:59:36.480Z,101733.06
2023-05-09T12:02:06.324Z,101738.06
2023-05-09T12:04:32.875Z,101733.34
2023-05-09T12:06:59.856Z,101722.19
2023-05-09T12:09:29.443Z,101728.06
2023-05-09T12:11:55.824Z,101717.72
2023-05-09T12:14:34.698Z,101718.66
2023-05-09T12:17:01.758Z,101715.94
2023-05-09T12:19:30.661Z,101712.72
2023-05-09T12:22:00.680Z,101708.50
2023-05-09T12:24:27.389Z,101713.97
2023-05-09T12:26:54.074Z,101718.22
2023-05-09T12:29:20.770Z,101720.94
2023-05-09T12:31:47.213Z,101714.78
2023-05-09T12:34:13.740Z,101705.25
2023-05-09T12:36:40.161Z,101711.63
2023-05-09T12:39:10.334Z,101697.97
2023-05-09T12:41:53.466Z,101680.59
2023-05-09T12:44:29.279Z,101693.56
2023-05-09T12:47:02.718Z,101668.44
2023-05-09T12:49:29.661Z,101678.03
2023-05-09T12:51:57.208Z,101686.63
2023-05-09T12:54:24.562Z,101678.41
2023-05-09T12:56:56.619Z,101665.38
2023-05-09T12:59:24.090Z,101665.53
2023-05-09T13:01:55.755Z,101659.91
2023-05-09T13:04:23.478Z,101657.38
2023-05-09T13:06:55.726Z,101655.16
2023-05-09T13:09:22.914Z,101652.09
2023-05-09T13:11:49.936Z,101648.16
2023-05-09T13:14:22.700Z,101645.03
2023-05-09T13:16:51.188Z,101649.56
2023-05-09T13:19:17.864Z,101635.38
2023-05-09T13:21:44.294Z,101625.97
2023-05-09T13:24:10.740Z,101628.16
2023-05-09T13:26:37.156Z,101619.50
2023-05-09T13:29:03.624Z,101631.66
2023-05-09T13:31:30.349Z,101626.38
2023-05-09T13:33:56.706Z,101609.28
2023-05-09T13:36:23.078Z,101600.00
2023-05-09T13:38:49.554Z,101605.66
2023-05-09T13:41:20.331Z,101597.16
2023-05-09T13:43:47.040Z,101596.22
2023-05-09T13:46:13.591Z,101593.19
2023-05-09T13:48:40.049Z,101601.47
2023-05-09T13:51:07.821Z,101594.09
2023-05-09T13:53:34.535Z,101584.91
2023-05-09T13:56:02.802Z,101589.41
2023-05-09T13:58:29.206Z,101587.03
2023-05-09T14:00:55.578Z,101581.00
2023-05-09T14:03:21.998Z,101577.41
2023-05-09T14:05:56.831Z,101565.75
2023-05-09T14:08:23.343Z,101568.53
2023-05-09T14:10:49.802Z,101567.72
2023-05-09T14:13:16.294Z,101565.28
2023-05-09T14:15:42.964Z,101559.22
2023-05-09T14:18:09.497Z,101549.59
2023-05-09T14:20:37.593Z,101552.53
2023-05-09T14:23:04.074Z,101536.94
2023-05-09T14:25:32.880Z,101535.06
2023-05-09T14:27:59.524Z,101538.00
2023-05-09T14:30:26.553Z,101537.13
2023-05-09T14:32:52.883Z,101549.66
2023-05-09T14:35:19.325Z,101540.16
2023-05-09T14:37:45.711Z,101549.56
2023-05-09T14:40:12.448Z,101536.13
2023-05-09T14:42:38.976Z,101533.03
2023-05-09T14:45:06.800Z,101535.84
2023-05-09T14:47:35.468Z,101534.03
2023-05-09T14:50:02.290Z,101530.53
2023-05-09T14:52:28.960Z,101518.38
2023-05-09T14:54:55.437Z,101521.69
2023-05-09T14:57:22.802Z,101511.56
2023-05-09T14:59:49.160Z,101511.88
2023-05-09T15:02:15.543Z,101506.91
2023-05-09T15:04:43.838Z,101524.44
2023-05-09T15:07:13.282Z,101509.91
2023-05-09T15:09:39.659Z,101505.97
2023-05-09T15:12:08.854Z,101510.16
2023-05-09T15:14:35.189Z,101503.56
2023-05-09T15:17:04.182Z,101502.41
2023-05-09T15:19:35.030Z,101495.16
2023-05-09T15:22:01.676Z,101495.06
2023-05-09T15:24:28.185Z,101484.78
2023-05-09T15:26:54.602Z,101483.81
2023-05-09T15:29:22.299Z,101474.38
2023-05-09T15:31:48.955Z,101467.84
2023-05-09T15:34:24.249Z,101472.53
2023-05-09T15:36:50.683Z,101468.13
2023-05-09T15:39:18.538Z,101467.44
2023-05-09T15:41:45.162Z,101450.63
2023-05-09T15:44:11.564Z,101445.88
2023-05-09T15:46:38.199Z,101447.16
2023-05-09T15:49:04.665Z,101445.47
2023-05-09T15:51:31.695Z,101444.19
2023-05-09T15:53:58.186Z,101441.69
2023-05-09T15:56:24.556Z,101439.28
2023-05-09T15:58:50.935Z,101432.22
2023-05-09T16:01:17.399Z,101427.88
2023-05-09T16:03:43.996Z,101419.88
2023-05-09T16:06:10.505Z,101421.09
2023-05-09T16:08:37.654Z,101420.16
2023-05-09T16:11:04.694Z,101419.03
2023-05-09T16:13:31.976Z,101423.31
2023-05-09T16:16:00.556Z,101408.00
2023-05-09T16:18:26.962Z,101408.16
2023-05-09T16:20:53.293Z,101405.91
2023-05-09T16:23:21.069Z,101407.19
2023-05-09T16:25:49.792Z,101399.13
2023-05-09T16:28:16.224Z,101401.53
2023-05-09T16:30:42.621Z,101395.53
2023-05-09T16:33:09.051Z,101395.28
2023-05-09T16:35:37.312Z,101394.66
2023-05-09T16:38:03.694Z,101391.19
2023-05-09T16:40:30.107Z,101389.25
2023-05-09T16:42:58.940Z,101388.72
2023-05-09T16:45:25.541Z,101387.53
2023-05-09T16:47:53.550Z,101393.53
2023-05-09T16:50:20.049Z,101391.03
2023-05-09T16:52:48.761Z,101380.41
2023-05-09T16:55:15.261Z,101387.59
2023-05-09T16:57:41.770Z,101377.38
2023-05-09T17:00:09.680Z,101385.09
2023-05-09T17:02:37.073Z,101366.28
2023-05-09T17:05:04.225Z,101375.03
2023-05-09T17:07:30.779Z,101364.41
2023-05-09T17:09:57.169Z,101368.16
2023-05-09T17:12:23.725Z,101359.25
2023-05-09T17:14:50.099Z,101360.66
2023-05-09T17:17:17.698Z,101353.97
2023-05-09T17:19:44.132Z,101352.03
2023-05-09T17:22:10.917Z,101342.16
2023-05-09T17:24:37.533Z,101345.00
2023-05-09T17:27:04.259Z,101340.16
2023-05-09T17:29:31.101Z,101341.03
2023-05-09T17:31:58.255Z,101344.88
2023-05-09T17:34:24.712Z,101351.50
2023-05-09T17:36:52.300Z,101343.78
2023-05-09T17:39:18.628Z,101347.63
2023-05-09T17:41:45.053Z,101348.09
2023-05-09T17:44:11.604Z,101344.81
2023-05-09T17:46:38.316Z,101345.44
2023-05-09T17:49:07.630Z,101342.16
2023-05-09T17:51:34.029Z,101341.94
2023-05-09T17:54:00.486Z,101340.63
2023-05-09T17:56:27.077Z,101338.38
2023-05-09T17:58:53.830Z,101342.47
2023-05-09T18:01:20.347Z,101345.25
2023-05-09T18:03:46.763Z,101343.28
2023-05-09T18:06:13.221Z,101347.03
2023-05-09T18:08:39.610Z,101344.66
2023-05-09T18:11:06.335Z,101350.28
2023-05-09T18:13:34.402Z,101355.50
2023-05-09T18:16:01.545Z,101348.84
2023-05-09T18:18:31.224Z,101349.91
2023-05-09T18:20:58.149Z,101355.66
2023-05-09T18:23:25.986Z,101359.41
2023-05-09T18:25:59.502Z,101351.34
2023-05-09T18:28:25.945Z,101345.00
2023-05-09T18:30:54.399Z,101349.72
2023-05-09T18:33:22.177Z,101350.66
2023-05-09T18:35:48.563Z,101352.56
2023-05-09T18:38:15.024Z,101346.78
2023-05-09T18:40:42.149Z,101344.50
2023-05-09T18:43:08.938Z,101344.63
2023-05-09T18:45:35.633Z,101341.97
2023-05-09T18:48:02.655Z,101341.47
2023-05-09T18:50:29.449Z,101339.91
2023-05-09T18:52:55.814Z,101344.44
2023-05-09T18:55:22.392Z,101352.72
2023-05-09T18:57:48.916Z,101348.28
2023-05-09T19:00:15.768Z,101348.72
2023-05-09T19:02:42.533Z,101356.94
2023-05-09T19:05:11.391Z,101357.22
2023-05-09T19:07:38.135Z,101359.09
2023-05-09T19:10:05.098Z,101354.19
2023-05-09T19:12:35.293Z,101365.81
2023-05-09T19:15:02.055Z,101365.16
2023-05-09T19:17:29.204Z,101362.78
2023-05-09T19:19:55.587Z,101363.75
2023-05-09T19:22:21.927Z,101359.66
2023-05-09T19:24:51.323Z,101355.47
2023-05-09T19:27:18.258Z,101359.66
2023-05-09T19:29:47.494Z,101356.53
2023-05-09T19:32:17.878Z,101349.97
2023-05-09T19:34:45.653Z,101349.19
2023-05-09T19:37:12.010Z,101355.50
2023-05-09T19:39:38.480Z,101353.91
2023-05-09T19:42:04.856Z,101353.09
2023-05-09T19:44:31.266Z,101356.91
2023-05-09T19:46:58.555Z,101361.22
2023-05-09T19:49:24.896Z,101358.06
2023-05-09T19:51:52.381Z,101350.16
2023-05-09T19:54:19.908Z,101351.31
2023-05-09T19:56:46.254Z,101347.25
2023-05-09T19:59:12.582Z,101350.06
2023-05-09T20:01:39.131Z,101345.09
2023-05-09T20:04:06.215Z,101348.03
2023-05-09T20:06:32.628Z,101354.41
2023-05-09T20:08:59.072Z,101353.81
2023-05-09T20:11:27.679Z,101356.69
2023-05-09T20:13:54.329Z,101351.56
2023-05-09T20:16:21.336Z,101356.88
2023-05-09T20:18:49.416Z,101361.47
2023-05-09T20:21:18.546Z,101354.53
2023-05-09T20:23:45.074Z,101359.06
2023-05-09T20:26:11.464Z,101355.56
2023-05-09T20:28:38.313Z,101360.13
2023-05-09T20:31:05.129Z,101356.72
2023-05-09T20:33:31.653Z,101355.78
2023-05-09T20:35:57.970Z,101356.84
2023-05-09T20:38:24.537Z,101352.63
2023-05-09T20:40:50.915Z,101354.50
2023-05-09T20:43:17.292Z,101360.13
2023-05-09T20:45:43.786Z,101350.47
2023-05-09T20:48:10.420Z,101354.19
2023-05-09T20:50:36.955Z,101355.38
2023-05-09T20:53:03.332Z,101349.34
2023-05-09T20:55:29.713Z,101351.34
2023-05-09T20:57:56.056Z,101358.56
2023-05-09T21:00:22.636Z,101360.63
2023-05-09T21:02:49.069Z,101359.91
2023-05-09T21:05:16.924Z,101351.16
2023-05-09T21:07:43.639Z,101352.41
2023-05-09T21:10:10.377Z,101351.72
2023-05-09T21:12:37.166Z,101349.22
2023-05-09T21:15:03.723Z,101353.78
2023-05-09T21:17:30.110Z,101346.06
2023-05-09T21:19:56.711Z,101349.63
2023-05-09T21:22:23.161Z,101348.81
2023-05-09T21:24:50.785Z,101343.84
2023-05-09T21:27:17.170Z,101339.72
2023-05-09T21:29:43.620Z,101341.59
2023-05-09T21:32:10.069Z,101342.63
2023-05-09T21:34:36.464Z,101345.44
2023-05-09T21:37:02.961Z,101348.22
2023-05-09T21:39:29.291Z,101348.22
2023-05-09T21:41:55.657Z,101342.94
2023-05-09T21:44:22.276Z,101348.44
2023-05-09T21:46:48.791Z,101334.56
2023-05-09T21:49:16.978Z,101339.94
2023-05-09T21:51:43.576Z,101332.22
2023-05-09T21:54:10.836Z,101340.25
2023-05-09T21:56:37.295Z,101338.53
2023-05-09T21:59:03.785Z,101339.53
2023-05-09T22:01:30.192Z,101335.25
2023-05-09T22:03:56.701Z,101346.84
2023-05-09T22:06:23.127Z,101350.28
2023-05-09T22:08:51.074Z,101340.00
2023-05-09T22:11:17.923Z,101338.31
2023-05-09T22:13:44.311Z,101345.16
2023-05-09T22:16:10.802Z,101343.53
2023-05-09T22:18:37.182Z,101342.66
2023-05-09T22:21:03.647Z,101345.56
2023-05-09T22:23:30.586Z,101344.69
2023-05-09T22:25:56.922Z,101342.16
2023-05-09T22:28:23.262Z,101339.69
2023-05-09T22:30:49.743Z,101334.50
2023-05-09T22:33:16.158Z,101339.81
2023-05-09T22:35:42.532Z,101339.06
2023-05-09T22:38:08.898Z,101347.19
2023-05-09T22:40:35.244Z,101347.25
2023-05-09T22:43:01.628Z,101347.31
2023-05-09T22:45:28.005Z,101341.31
2023-05-09T22:47:54.460Z,101338.06
2023-05-09T22:50:20.958Z,101342.59
2023-05-09T22:52:47.411Z,101342.72
2023-05-09T22:55:14.062Z,101342.00
2023-05-09T22:57:41.146Z,101337.75
2023-05-09T23:00:07.697Z,101336.97
2023-05-09T23:02:34.061Z,101337.94
2023-05-09T23:05:00.576Z,101341.63
2023-05-09T23:07:26.993Z,101337.31
2023-05-09T23:09:53.350Z,101339.13
2023-05-09T23:12:19.778Z,101336.59
2023-05-09T23:14:46.345Z,101335.00
2023-05-09T23:17:12.702Z,101337.63
2023-05-09T23:19:39.125Z,101336.00
2023-05-09T23:22:05.480Z,101335.22
2023-05-09T23:24:31.824Z,101335.31
2023-05-09T23:26:58.322Z,101324.97
2023-05-09T23:29:25.203Z,101330.16
2023-05-09T23:31:51.687Z,101324.97
2023-05-09T23:34:18.081Z,101330.16
2023-05-09T23:36:44.400Z,101331.13
2023-05-09T23:39:10.968Z,101328.59
2023-05-09T23:41:37.556Z,101332.13
2023-05-09T23:44:03.952Z,101332.19
2023-05-09T23:46:30.414Z,101336.59
2023-05-09T23:48:57.286Z,101335.03
2023-05-09T23:51:23.746Z,101328.00
2023-05-09T23:53:50.703Z,101328.94
2023-05-09T23:56:17.305Z,101322.91
2023-05-09T23:58:43.743Z,101324.81
